Time;durP1;ratioP1;P1;durP2;ratioP2;P2;SDS_P1;SDS_P2;PMS_P1;PMS_P2;Temp;Humidity;BMP_temperature;BMP_pressure;BME280_temperature;BME280_humidity;BME280_pressure;Samples;Min_cycle;Max_cycle;Signal;HPM_P1;HPM_P2
2021/03/29 00:00:22;;;;;;;15.90;8.57;;;;;;;3.51;82.72;101753.22;20960352;27;961123;-62
2021/03/29 00:10:24;;;;;;;17.90;10.30;;;;;;;3.80;81.38;101745.81;20966762;28;20233;-64
2021/03/29 00:20:27;;;;;;;22.77;12.93;;;;;;;4.04;80.00;101736.66;20913561;28;20245;-64
2021/03/29 00:40:24;;;;;;;15.10;8.57;;;;;;;4.39;79.64;101744.03;20881266;27;20929;-64
2021/03/29 01:40:07;;;;;;;15.53;8.07;;;;;;;4.78;78.76;101741.63;21004120;27;941914;-67
2021/03/29 01:50:10;;;;;;;11.23;7.50;;;;;;;4.82;78.13;101744.22;20966640;28;20257;-64
2021/03/29 02:00:15;;;;;;;13.63;8.17;;;;;;;4.84;78.09;101749.44;20964784;28;20210;-64
2021/03/29 02:10:24;;;;;;;9.60;7.10;;;;;;;4.79;77.94;101733.69;20965030;28;20697;-63
2021/03/29 02:20:29;;;;;;;10.60;7.80;;;;;;;4.93;76.92;101741.38;20964516;28;20212;-64
2021/03/29 02:30:35;;;;;;;13.97;7.93;;;;;;;4.92;77.62;101744.91;20960177;28;20696;-65
2021/03/29 02:40:35;;;;;;;11.97;7.50;;;;;;;4.80;77.35;101748.66;20965579;28;20211;-63
2021/03/29 02:50:39;;;;;;;12.70;7.40;;;;;;;4.88;77.67;101748.50;20994352;28;20245;-64
2021/03/29 03:00:40;;;;;;;14.73;7.90;;;;;;;5.01;77.47;101742.09;20970878;28;20526;-63
2021/03/29 03:20:39;;;;;;;10.93;7.13;;;;;;;5.16;78.48;101739.16;21054660;27;20574;-62
2021/03/29 03:30:42;;;;;;;12.60;7.87;;;;;;;5.23;79.04;101735.47;21050508;28;20218;-63
2021/03/29 03:50:40;;;;;;;10.73;7.63;;;;;;;5.21;81.29;101747.00;20809059;27;20650;-65
2021/03/29 04:30:28;;;;;;;11.37;8.00;;;;;;;5.20;85.76;101759.34;20924719;27;863338;-68
2021/03/29 05:30:17;;;;;;;14.40;9.27;;;;;;;5.92;87.61;101720.81;20989428;27;20660;-63
2021/03/29 05:40:18;;;;;;;14.43;9.10;;;;;;;6.34;86.39;101729.53;20995361;28;20252;-61
2021/03/29 06:00:37;;;;;;;13.77;9.13;;;;;;;6.66;85.60;101748.16;20713012;28;20631;-63
2021/03/29 06:30:32;;;;;;;14.43;8.30;;;;;;;7.51;85.83;101761.78;20846319;27;20586;-62
2021/03/29 06:50:29;;;;;;;9.53;8.03;;;;;;;8.04;84.89;101761.13;20911076;27;21127;-71
2021/03/29 07:00:32;;;;;;;9.70;7.30;;;;;;;8.30;84.81;101778.00;20885877;28;20243;-66
2021/03/29 07:10:47;;;;;;;11.47;8.50;;;;;;;8.51;85.16;101783.59;20902865;28;20221;-62
2021/03/29 07:30:52;;;;;;;11.93;9.17;;;;;;;9.68;81.71;101783.00;20831957;27;1866589;-62
2021/03/29 07:40:57;;;;;;;10.27;7.17;;;;;;;9.98;81.32;101777.47;20910557;28;20344;-62
2021/03/29 07:51:08;;;;;;;8.90;7.23;;;;;;;10.32;80.47;101753.91;20899236;28;21067;-60
2021/03/29 08:01:10;;;;;;;10.73;6.50;;;;;;;11.24;77.45;101784.72;20922243;28;20316;-60
2021/03/29 08:11:17;;;;;;;10.03;6.70;;;;;;;11.78;75.99;101785.00;20906419;28;20228;-62
2021/03/29 08:22:09;;;;;;;8.10;5.93;;;;;;;12.42;73.14;101778.41;20912041;28;20941;-70
2021/03/29 08:32:26;;;;;;;8.53;5.73;;;;;;;12.74;73.74;101776.81;20527708;28;20219;-66
2021/03/29 08:42:29;;;;;;;8.77;6.20;;;;;;;13.46;72.26;101760.59;20445135;28;20670;-62
2021/03/29 08:53:00;;;;;;;9.27;6.03;;;;;;;13.76;67.36;101752.72;20477464;28;20244;-67
2021/03/29 09:03:27;;;;;;;7.23;5.67;;;;;;;14.26;67.31;101772.22;20594035;28;20758;-63
2021/03/29 09:13:31;;;;;;;6.50;4.87;;;;;;;14.85;68.13;101791.28;20831019;28;20212;-59
2021/03/29 09:23:32;;;;;;;8.47;6.37;;;;;;;14.80;67.01;101791.53;20859813;28;20732;-58
2021/03/29 09:33:33;;;;;;;9.07;6.97;;;;;;;14.64;67.91;101802.31;20859666;28;20377;-62
2021/03/29 09:43:40;;;;;;;6.43;5.80;;;;;;;14.66;67.70;101797.72;20825216;28;20400;-64
2021/03/29 09:53:41;;;;;;;7.77;5.83;;;;;;;14.90;67.84;101799.94;20857349;28;20234;-62
2021/03/29 10:03:56;;;;;;;7.17;5.63;;;;;;;14.78;66.51;101793.44;20824660;28;20762;-59
2021/03/29 10:14:16;;;;;;;8.23;5.77;;;;;;;15.00;64.55;101775.09;20874016;28;20258;-72
2021/03/29 10:24:18;;;;;;;7.30;5.73;;;;;;;14.88;65.69;101761.50;20857725;28;20227;-64
2021/03/29 10:34:19;;;;;;;8.73;7.03;;;;;;;14.87;64.80;101792.03;20854557;28;20223;-72
2021/03/29 10:44:20;;;;;;;12.57;8.57;;;;;;;14.41;65.64;101789.31;20857572;28;20226;-69
2021/03/29 10:54:20;;;;;;;13.23;8.23;;;;;;;14.18;65.69;101789.72;20867738;28;20214;-62
2021/03/29 11:04:23;;;;;;;13.50;10.10;;;;;;;14.62;65.56;101788.09;20879698;28;20239;-67
2021/03/29 11:14:23;;;;;;;14.60;11.47;;;;;;;15.03;63.67;101776.75;20840884;28;20802;-66
2021/03/29 11:24:24;;;;;;;13.03;9.97;;;;;;;15.41;63.06;101774.44;20830520;28;20247;-60
2021/03/29 11:34:24;;;;;;;12.67;9.80;;;;;;;15.71;62.02;101772.53;20698106;28;20321;-58
2021/03/29 11:44:25;;;;;;;13.20;9.87;;;;;;;15.40;62.80;101770.88;20725136;28;20322;-60
2021/03/29 11:54:25;;;;;;;14.07;10.03;;;;;;;15.55;62.55;101741.31;20706365;28;20217;-69
2021/03/29 12:04:30;;;;;;;13.87;10.87;;;;;;;15.91;62.13;101743.53;20721878;28;20221;-70
2021/03/29 12:14:35;;;;;;;27.97;21.50;;;;;;;16.08;61.42;101736.06;20699743;28;20223;-64
2021/03/29 12:24:41;;;;;;;12.23;9.70;;;;;;;16.41;59.71;101734.84;20726930;28;21057;-63
2021/03/29 12:34:45;;;;;;;10.80;8.57;;;;;;;15.98;60.78;101726.00;20717425;28;20288;-63
2021/03/29 12:44:45;;;;;;;21.23;12.00;;;;;;;16.08;59.28;101713.66;20764093;28;20219;-64
2021/03/29 12:54:46;;;;;;;12.97;8.23;;;;;;;15.61;60.35;101692.50;20721938;28;20358;-65
2021/03/29 13:04:48;;;;;;;20.70;12.40;;;;;;;15.55;60.16;101709.03;20738740;28;20474;-69
2021/03/29 13:15:08;;;;;;;16.20;10.20;;;;;;;15.97;60.94;101710.81;20736055;28;20238;-68
2021/03/29 13:25:09;;;;;;;10.60;7.87;;;;;;;15.75;60.21;101696.03;20805653;28;20235;-69
2021/03/29 13:35:10;;;;;;;12.20;7.87;;;;;;;15.08;61.29;101686.78;20866617;28;20617;-67
2021/03/29 13:45:13;;;;;;;22.73;14.73;;;;;;;14.49;63.77;101700.25;20859583;28;20226;-69
2021/03/29 13:55:16;;;;;;;13.67;8.47;;;;;;;14.23;65.25;101699.06;20857815;28;20314;-68
2021/03/29 14:05:18;;;;;;;7.40;5.83;;;;;;;14.25;65.96;101697.97;20867350;28;20219;-68
2021/03/29 14:15:19;;;;;;;20.10;12.83;;;;;;;14.15;66.08;101652.97;20846339;28;20220;-68
2021/03/29 14:25:20;;;;;;;7.83;6.80;;;;;;;14.31;66.95;101683.34;20881243;28;20228;-67
2021/03/29 14:35:48;;;;;;;11.20;6.93;;;;;;;14.23;68.58;101675.75;20864987;28;20331;-68
2021/03/29 14:45:48;;;;;;;11.60;8.00;;;;;;;14.28;68.92;101670.97;20869871;28;20274;-65
2021/03/29 14:55:49;;;;;;;10.37;7.50;;;;;;;13.93;70.20;101669.44;20835659;28;20259;-68
2021/03/29 15:15:50;;;;;;;9.77;7.90;;;;;;;13.61;72.38;101631.00;20854795;28;20256;-65
2021/03/29 15:25:50;;;;;;;11.47;9.27;;;;;;;13.52;74.04;101639.59;20853662;28;20227;-66
2021/03/29 15:35:51;;;;;;;11.73;8.77;;;;;;;13.32;75.01;101636.16;20867808;28;20230;-64
2021/03/29 15:45:52;;;;;;;9.97;7.30;;;;;;;13.15;76.27;101636.22;20827952;28;20823;-70
2021/03/29 15:55:55;;;;;;;10.20;7.57;;;;;;;12.88;76.72;101648.38;20875465;28;20239;-68
2021/03/29 16:05:55;;;;;;;12.57;7.53;;;;;;;12.66;77.64;101655.81;20856842;28;20248;-62
2021/03/29 16:15:56;;;;;;;13.40;9.13;;;;;;;12.43;78.76;101639.13;20879786;28;21000;-62
2021/03/29 16:26:08;;;;;;;12.80;9.53;;;;;;;12.36;80.39;101658.22;20847670;28;20925;-64
2021/03/29 16:36:08;;;;;;;13.50;9.87;;;;;;;12.18;80.99;101665.38;20878372;28;20308;-67
2021/03/29 16:46:09;;;;;;;29.80;24.23;;;;;;;11.96;82.92;101681.59;20830219;28;20297;-58
2021/03/29 16:56:09;;;;;;;17.90;13.27;;;;;;;11.73;84.38;101685.31;20849425;28;21022;-58
2021/03/29 17:06:12;;;;;;;15.03;11.43;;;;;;;11.52;86.66;101687.22;20850661;28;20474;-61
2021/03/29 17:16:12;;;;;;;18.40;14.23;;;;;;;11.34;88.41;101696.09;20844894;28;20228;-60
2021/03/29 17:26:13;;;;;;;16.00;13.30;;;;;;;11.15;90.51;101701.38;20883808;28;20432;-60
2021/03/29 17:36:13;;;;;;;14.40;12.67;;;;;;;11.05;91.23;101697.38;20845069;28;20619;-61
2021/03/29 18:16:02;;;;;;;22.80;15.30;;;;;;;10.73;95.65;101732.63;20966191;27;20663;-68
2021/03/29 18:26:03;;;;;;;21.00;15.70;;;;;;;10.72;96.72;101744.25;20893909;28;20661;-63
2021/03/29 18:36:04;;;;;;;24.53;18.03;;;;;;;10.63;97.69;101741.94;20884481;28;20223;-62
2021/03/29 18:46:06;;;;;;;21.63;17.43;;;;;;;10.56;97.82;101751.16;20858755;28;20687;-61
2021/03/29 19:06:09;;;;;;;26.97;21.70;;;;;;;10.41;99.72;101768.66;20895953;28;20227;-60
2021/03/29 19:16:09;;;;;;;30.73;20.67;;;;;;;10.36;99.65;101763.53;20883176;28;20277;-63
2021/03/29 19:26:15;;;;;;;34.57;24.27;;;;;;;10.29;99.88;101762.00;20827641;28;20953;-61
2021/03/29 19:36:17;;;;;;;30.60;23.20;;;;;;;10.23;100.00;101764.06;20825804;28;20462;-62
2021/03/29 19:46:17;;;;;;;28.93;21.73;;;;;;;10.13;100.00;101752.88;20828455;28;20594;-58
2021/03/29 19:56:18;;;;;;;26.50;19.67;;;;;;;10.05;100.00;101754.94;20831218;28;20257;-63
2021/03/29 20:16:25;;;;;;;21.90;16.07;;;;;;;9.95;100.00;101749.09;20825473;28;20220;-62
2021/03/29 20:26:26;;;;;;;19.13;15.53;;;;;;;9.91;100.00;101746.59;20773622;28;20352;-59
2021/03/29 20:36:27;;;;;;;20.77;16.73;;;;;;;9.85;100.00;101736.19;20779491;28;20326;-61
2021/03/29 20:46:29;;;;;;;20.97;15.43;;;;;;;9.79;100.00;101731.94;20810201;28;20346;-61
2021/03/29 20:56:29;;;;;;;19.80;15.43;;;;;;;9.78;100.00;101724.03;20811129;28;20338;-60
2021/03/29 21:06:31;;;;;;;19.90;16.27;;;;;;;9.75;100.00;101715.22;20867226;28;20708;-64
2021/03/29 21:16:33;;;;;;;20.37;16.60;;;;;;;9.81;100.00;101721.25;20877198;28;20221;-64
2021/03/29 21:26:34;;;;;;;28.27;21.30;;;;;;;9.86;100.00;101712.16;20913219;28;20297;-64
2021/03/29 21:36:35;;;;;;;20.60;16.93;;;;;;;9.92;100.00;101711.00;20865855;28;20246;-62
2021/03/29 21:46:38;;;;;;;21.77;16.10;;;;;;;9.93;100.00;101692.28;20883888;28;20700;-61
2021/03/29 22:17:38;;;;;;;32.20;24.23;;;;;;;9.90;100.00;101704.91;20802816;28;20588;-66
2021/03/29 22:27:43;;;;;;;18.57;16.00;;;;;;;9.88;100.00;101688.97;20761192;28;22051;-67
2021/03/29 22:48:15;;;;;;;20.10;16.63;;;;;;;9.98;100.00;101705.47;21253373;27;21008;-68
2021/03/29 22:58:16;;;;;;;18.70;16.63;;;;;;;9.98;100.00;101700.13;21211043;27;20244;-66
2021/03/29 23:08:16;;;;;;;21.60;15.30;;;;;;;9.88;100.00;101678.28;21204405;27;20216;-67
2021/03/29 23:18:17;;;;;;;22.83;16.07;;;;;;;9.91;100.00;101698.63;21217627;27;20232;-66
2021/03/29 23:28:55;;;;;;;19.03;15.10;;;;;;;9.90;100.00;101703.06;21193869;27;20220;-69
2021/03/29 23:49:15;;;;;;;20.80;16.20;;;;;;;9.93;100.00;101694.97;21243859;27;20541;-68
